Terminal Aerodrome Forecast
Issued by NWS

Home | Current Version | Previous Version | Text Only | Print | Product List | Glossary On
Versions: 1 2 3 4 5 6 7 8 9 10 11 12 13 14 15 16 17 18 19
000
FTUS41 KPBZ 252300
TAFLBE
TAF
KLBE 252320Z 2600/2624 33005KT P6SM BKN200
     FM260900 01004KT 3SM -SN OVC030
     FM261100 02005KT 1SM -SN BR OVC010
     FM262100 VRB03KT P6SM OVC015=

USA.gov is the U.S. government's official web portal to all federal, state and local government web resources and services.